Terminal Aerodrome Forecast
Issued by NWS

Current Version | Previous Version | Graphics & Text | Print | Product List | Glossary On
Versions: 1 2 3 4 5 6 7 8 9 10 11 12 13 14 15 16 17 18 19 20 21 22 23 24 25
148
FTUS41 KPBZ 290035 AAA
TAFMGW
TAF AMD
KMGW 290035Z 2901/2924 VRB03KT P6SM -TSRA BKN050CB
     FM290130 VRB03KT P6SM BKN050
     FM290400 VRB05KT 5SM -SHRA VCTS OVC050CB
     FM290600 18005KT P6SM VCSH BKN050
     FM290900 20005KT 5SM -SHRA VCTS OVC035CB
     FM291300 23010KT P6SM VCSH BKN035
     FM292200 26005KT P6SM SCT050=

USA.gov is the U.S. government's official web portal to all federal, state and local government web resources and services.